sensor_id;sensor_type;location;lat;lon;timestamp;pressure;altitude;pressure_sealevel;temperature;humidity
46778;BME280;32536;47.128;8.746;2023-05-08T00:00:31;91990.19;;;15.18;56.66
46778;BME280;32536;47.128;8.746;2023-05-08T00:02:57;91991.03;;;15.15;56.93
46778;BME280;32536;47.128;8.746;2023-05-08T00:05:24;91983.78;;;15.12;56.63
46778;BME280;32536;47.128;8.746;2023-05-08T00:07:51;91985.28;;;15.13;56.73
46778;BME280;32536;47.128;8.746;2023-05-08T00:10:18;91981.31;;;15.18;56.37
46778;BME280;32536;47.128;8.746;2023-05-08T00:12:44;91980.16;;;15.19;56.61
46778;BME280;32536;47.128;8.746;2023-05-08T00:15:11;91980.16;;;15.19;56.41
46778;BME280;32536;47.128;8.746;2023-05-08T00:17:38;91980.50;;;15.21;56.47
46778;BME280;32536;47.128;8.746;2023-05-08T00:20:05;91976.59;;;15.22;56.79
46778;BME280;32536;47.128;8.746;2023-05-08T00:22:33;91973.47;;;15.24;56.83
46778;BME280;32536;47.128;8.746;2023-05-08T00:25:00;91971.97;;;15.23;56.86
46778;BME280;32536;47.128;8.746;2023-05-08T00:27:27;91966.56;;;15.23;56.84
46778;BME280;32536;47.128;8.746;2023-05-08T00:29:54;91963.00;;;15.26;56.99
46778;BME280;32536;47.128;8.746;2023-05-08T00:32:21;91966.56;;;15.23;56.95
46778;BME280;32536;47.128;8.746;2023-05-08T00:34:48;91964.59;;;15.23;56.52
46778;BME280;32536;47.128;8.746;2023-05-08T00:37:14;91966.13;;;15.24;56.53
46778;BME280;32536;47.128;8.746;2023-05-08T00:39:41;91965.69;;;15.26;56.45
46778;BME280;32536;47.128;8.746;2023-05-08T00:42:08;91968.41;;;15.26;56.68
46778;BME280;32536;47.128;8.746;2023-05-08T00:44:35;91964.53;;;15.27;56.73
46778;BME280;32536;47.128;8.746;2023-05-08T00:47:05;91964.13;;;15.28;56.96
46778;BME280;32536;47.128;8.746;2023-05-08T00:49:32;91965.94;;;15.31;56.79
46778;BME280;32536;47.128;8.746;2023-05-08T00:52:01;91958.94;;;15.34;56.92
46778;BME280;32536;47.128;8.746;2023-05-08T00:54:29;91969.97;;;15.40;56.50
46778;BME280;32536;47.128;8.746;2023-05-08T00:56:56;91961.78;;;15.43;56.71
46778;BME280;32536;47.128;8.746;2023-05-08T00:59:23;91964.81;;;15.45;56.63
46778;BME280;32536;47.128;8.746;2023-05-08T01:01:51;91959.75;;;15.47;56.73
46778;BME280;32536;47.128;8.746;2023-05-08T01:04:20;91957.47;;;15.46;56.86
46778;BME280;32536;47.128;8.746;2023-05-08T01:06:50;91959.00;;;15.47;56.41
46778;BME280;32536;47.128;8.746;2023-05-08T01:09:17;91955.50;;;15.46;56.77
46778;BME280;32536;47.128;8.746;2023-05-08T01:12:02;91952.91;;;15.43;56.74
46778;BME280;32536;47.128;8.746;2023-05-08T01:20:59;91958.00;;;15.41;57.21
46778;BME280;32536;47.128;8.746;2023-05-08T01:27:04;91958.91;;;15.50;57.13
46778;BME280;32536;47.128;8.746;2023-05-08T01:32:41;91969.50;;;15.58;56.41
46778;BME280;32536;47.128;8.746;2023-05-08T01:35:18;91960.31;;;15.55;56.41
46778;BME280;32536;47.128;8.746;2023-05-08T01:38:09;91957.28;;;15.53;56.80
46778;BME280;32536;47.128;8.746;2023-05-08T01:41:11;91962.69;;;15.53;56.62
46778;BME280;32536;47.128;8.746;2023-05-08T01:46:22;91959.44;;;15.45;56.83
46778;BME280;32536;47.128;8.746;2023-05-08T01:48:55;91964.16;;;15.41;56.63
46778;BME280;32536;47.128;8.746;2023-05-08T01:51:58;91959.72;;;15.34;57.13
46778;BME280;32536;47.128;8.746;2023-05-08T01:54:42;91959.03;;;15.30;56.95
46778;BME280;32536;47.128;8.746;2023-05-08T01:57:43;91966.81;;;15.28;56.56
46778;BME280;32536;47.128;8.746;2023-05-08T02:00:20;91972.97;;;15.29;56.54
46778;BME280;32536;47.128;8.746;2023-05-08T02:02:48;91969.41;;;15.32;56.25
46778;BME280;32536;47.128;8.746;2023-05-08T02:05:17;91967.03;;;15.34;56.61
46778;BME280;32536;47.128;8.746;2023-05-08T02:07:48;91965.41;;;15.36;56.53
46778;BME280;32536;47.128;8.746;2023-05-08T02:10:15;91969.97;;;15.40;56.26
46778;BME280;32536;47.128;8.746;2023-05-08T02:12:43;91976.13;;;15.40;56.15
46778;BME280;32536;47.128;8.746;2023-05-08T02:15:12;91969.19;;;15.39;56.34
46778;BME280;32536;47.128;8.746;2023-05-08T02:17:42;91972.34;;;15.37;56.42
46778;BME280;32536;47.128;8.746;2023-05-08T02:20:12;91969.63;;;15.37;56.33
46778;BME280;32536;47.128;8.746;2023-05-08T02:22:43;91975.13;;;15.34;56.41
46778;BME280;32536;47.128;8.746;2023-05-08T02:25:13;91985.09;;;15.37;56.52
46778;BME280;32536;47.128;8.746;2023-05-08T02:27:43;91977.72;;;15.37;56.42
46778;BME280;32536;47.128;8.746;2023-05-08T02:30:13;91976.56;;;15.39;56.56
46778;BME280;32536;47.128;8.746;2023-05-08T02:32:45;91976.56;;;15.39;56.37
46778;BME280;32536;47.128;8.746;2023-05-08T02:35:15;91983.56;;;15.36;56.82
46778;BME280;32536;47.128;8.746;2023-05-08T02:37:45;91979.78;;;15.33;57.08
46778;BME280;32536;47.128;8.746;2023-05-08T02:40:13;91986.34;;;15.32;57.23
46778;BME280;32536;47.128;8.746;2023-05-08T02:42:42;91981.63;;;15.36;57.29
46778;BME280;32536;47.128;8.746;2023-05-08T02:45:10;91982.28;;;15.41;57.22
46778;BME280;32536;47.128;8.746;2023-05-08T02:48:00;91984.13;;;15.44;57.53
46778;BME280;32536;47.128;8.746;2023-05-08T02:50:53;91990.22;;;15.48;57.61
46778;BME280;32536;47.128;8.746;2023-05-08T02:53:33;91984.72;;;15.51;57.07
46778;BME280;32536;47.128;8.746;2023-05-08T02:56:20;91983.50;;;15.52;57.47
46778;BME280;32536;47.128;8.746;2023-05-08T02:59:26;91981.59;;;15.53;57.25
46778;BME280;32536;47.128;8.746;2023-05-08T03:02:13;91991.84;;;15.58;57.04
46778;BME280;32536;47.128;8.746;2023-05-08T03:04:54;91983.41;;;15.56;57.05
46778;BME280;32536;47.128;8.746;2023-05-08T03:07:26;91977.91;;;15.60;56.87
46778;BME280;32536;47.128;8.746;2023-05-08T03:09:58;91971.03;;;15.59;56.63
46778;BME280;32536;47.128;8.746;2023-05-08T03:12:30;91979.88;;;15.59;56.77
46778;BME280;32536;47.128;8.746;2023-05-08T03:17:41;91978.88;;;15.53;56.70
46778;BME280;32536;47.128;8.746;2023-05-08T03:20:14;91980.91;;;15.49;56.80
46778;BME280;32536;47.128;8.746;2023-05-08T03:22:43;91980.16;;;15.48;56.80
46778;BME280;32536;47.128;8.746;2023-05-08T03:25:12;91976.72;;;15.48;56.69
46778;BME280;32536;47.128;8.746;2023-05-08T03:27:42;91972.41;;;15.50;56.72
46778;BME280;32536;47.128;8.746;2023-05-08T03:30:11;91978.88;;;15.53;56.76
46778;BME280;32536;47.128;8.746;2023-05-08T03:32:38;91974.56;;;15.56;56.54
46778;BME280;32536;47.128;8.746;2023-05-08T03:35:07;91979.22;;;15.55;56.54
46778;BME280;32536;47.128;8.746;2023-05-08T03:37:34;91978.44;;;15.55;56.44
46778;BME280;32536;47.128;8.746;2023-05-08T03:40:01;91980.50;;;15.50;56.56
46778;BME280;32536;47.128;8.746;2023-05-08T03:42:29;91981.78;;;15.46;56.54
46778;BME280;32536;47.128;8.746;2023-05-08T03:44:57;91985.31;;;15.43;56.61
46778;BME280;32536;47.128;8.746;2023-05-08T03:47:24;91987.78;;;15.37;56.74
46778;BME280;32536;47.128;8.746;2023-05-08T03:49:51;91980.09;;;15.35;56.54
46778;BME280;32536;47.128;8.746;2023-05-08T03:52:18;91986.25;;;15.36;56.56
46778;BME280;32536;47.128;8.746;2023-05-08T03:54:45;91985.41;;;15.39;56.80
46778;BME280;32536;47.128;8.746;2023-05-08T03:57:12;91988.88;;;15.40;56.91
46778;BME280;32536;47.128;8.746;2023-05-08T03:59:53;91987.34;;;15.39;57.17
46778;BME280;32536;47.128;8.746;2023-05-08T04:02:35;91991.47;;;15.43;56.80
46778;BME280;32536;47.128;8.746;2023-05-08T04:05:20;91986.09;;;15.43;57.03
46778;BME280;32536;47.128;8.746;2023-05-08T04:08:19;91996.00;;;15.46;57.20
46778;BME280;32536;47.128;8.746;2023-05-08T04:11:17;91992.91;;;15.48;57.06
46778;BME280;32536;47.128;8.746;2023-05-08T04:14:23;92000.13;;;15.51;56.95
46778;BME280;32536;47.128;8.746;2023-05-08T04:16:55;92004.38;;;15.52;56.85
46778;BME280;32536;47.128;8.746;2023-05-08T04:19:33;92000.91;;;15.51;56.76
46778;BME280;32536;47.128;8.746;2023-05-08T04:22:05;91995.09;;;15.53;56.68
46778;BME280;32536;47.128;8.746;2023-05-08T04:24:38;92012.81;;;15.54;56.58
46778;BME280;32536;47.128;8.746;2023-05-08T04:27:08;92012.38;;;15.56;56.60
46778;BME280;32536;47.128;8.746;2023-05-08T04:29:35;92005.88;;;15.53;56.52
46778;BME280;32536;47.128;8.746;2023-05-08T04:32:04;92005.09;;;15.52;56.38
46778;BME280;32536;47.128;8.746;2023-05-08T04:34:32;92003.63;;;15.51;56.60
46778;BME280;32536;47.128;8.746;2023-05-08T04:36:58;92007.91;;;15.49;56.70
46778;BME280;32536;47.128;8.746;2023-05-08T04:39:25;92009.09;;;15.48;56.54
46778;BME280;32536;47.128;8.746;2023-05-08T04:41:52;92004.88;;;15.47;56.64
46778;BME280;32536;47.128;8.746;2023-05-08T04:44:20;92009.00;;;15.51;56.67
46778;BME280;32536;47.128;8.746;2023-05-08T04:47:18;92011.28;;;15.53;56.80
46778;BME280;32536;47.128;8.746;2023-05-08T04:49:45;92006.13;;;15.59;56.82
46778;BME280;32536;47.128;8.746;2023-05-08T04:52:12;92006.13;;;15.59;56.74
46778;BME280;32536;47.128;8.746;2023-05-08T04:54:38;92010.31;;;15.60;56.47
46778;BME280;32536;47.128;8.746;2023-05-08T04:57:05;92007.22;;;15.61;56.50
46778;BME280;32536;47.128;8.746;2023-05-08T04:59:32;92008.72;;;15.62;56.82
46778;BME280;32536;47.128;8.746;2023-05-08T05:01:59;92016.41;;;15.64;56.51
46778;BME280;32536;47.128;8.746;2023-05-08T05:04:31;92011.00;;;15.64;56.79
46778;BME280;32536;47.128;8.746;2023-05-08T05:06:58;92009.03;;;15.64;56.49
46778;BME280;32536;47.128;8.746;2023-05-08T05:09:25;92001.28;;;15.66;56.73
46778;BME280;32536;47.128;8.746;2023-05-08T05:11:51;92004.31;;;15.68;56.59
46778;BME280;32536;47.128;8.746;2023-05-08T05:14:18;92007.03;;;15.68;56.71
46778;BME280;32536;47.128;8.746;2023-05-08T05:16:45;91999.34;;;15.67;56.93
46778;BME280;32536;47.128;8.746;2023-05-08T05:19:12;92007.03;;;15.68;57.05
46778;BME280;32536;47.128;8.746;2023-05-08T05:21:39;92008.84;;;15.72;57.02
46778;BME280;32536;47.128;8.746;2023-05-08T05:24:06;92010.38;;;15.73;57.08
46778;BME280;32536;47.128;8.746;2023-05-08T05:26:33;92006.81;;;15.76;56.98
46778;BME280;32536;47.128;8.746;2023-05-08T05:28:59;92015.16;;;15.81;57.15
46778;BME280;32536;47.128;8.746;2023-05-08T05:31:27;92007.03;;;15.81;57.21
46778;BME280;32536;47.128;8.746;2023-05-08T05:33:56;92005.91;;;15.82;57.00
46778;BME280;32536;47.128;8.746;2023-05-08T05:36:23;92014.34;;;15.84;57.23
46778;BME280;32536;47.128;8.746;2023-05-08T05:38:50;92009.25;;;15.87;57.18
46778;BME280;32536;47.128;8.746;2023-05-08T05:41:17;92006.97;;;15.85;57.01
46778;BME280;32536;47.128;8.746;2023-05-08T05:43:43;92011.63;;;15.84;56.98
46778;BME280;32536;47.128;8.746;2023-05-08T05:46:10;92015.09;;;15.85;56.74
46778;BME280;32536;47.128;8.746;2023-05-08T05:48:37;92005.47;;;15.84;56.56
46778;BME280;32536;47.128;8.746;2023-05-08T05:51:03;92012.03;;;15.83;56.57
46778;BME280;32536;47.128;8.746;2023-05-08T05:53:30;92014.06;;;15.79;56.45
46778;BME280;32536;47.128;8.746;2023-05-08T05:55:57;92007.91;;;15.78;56.63
46778;BME280;32536;47.128;8.746;2023-05-08T05:58:24;92014.50;;;15.77;56.45
46778;BME280;32536;47.128;8.746;2023-05-08T06:00:50;92013.41;;;15.75;56.37
46778;BME280;32536;47.128;8.746;2023-05-08T06:03:17;92017.28;;;15.74;56.47
46778;BME280;32536;47.128;8.746;2023-05-08T06:05:45;92017.81;;;15.68;56.51
46778;BME280;32536;47.128;8.746;2023-05-08T06:08:12;92021.72;;;15.67;56.44
46778;BME280;32536;47.128;8.746;2023-05-08T06:10:41;92019.75;;;15.68;56.48
46778;BME280;32536;47.128;8.746;2023-05-08T06:13:07;92013.59;;;15.67;56.49
46778;BME280;32536;47.128;8.746;2023-05-08T06:15:34;92016.63;;;15.69;56.90
46778;BME280;32536;47.128;8.746;2023-05-08T06:18:01;92016.22;;;15.71;56.82
46778;BME280;32536;47.128;8.746;2023-05-08T06:20:28;92013.16;;;15.69;57.00
46778;BME280;32536;47.128;8.746;2023-05-08T06:22:55;92013.59;;;15.67;57.02
46778;BME280;32536;47.128;8.746;2023-05-08T06:25:22;92017.41;;;15.70;57.31
46778;BME280;32536;47.128;8.746;2023-05-08T06:27:48;92012.22;;;15.76;57.01
46778;BME280;32536;47.128;8.746;2023-05-08T06:30:15;92022.50;;;15.81;57.28
46778;BME280;32536;47.128;8.746;2023-05-08T06:32:42;92021.25;;;15.86;57.11
46778;BME280;32536;47.128;8.746;2023-05-08T06:35:09;92026.44;;;15.93;57.20
46778;BME280;32536;47.128;8.746;2023-05-08T06:37:36;92017.94;;;15.94;57.17
46778;BME280;32536;47.128;8.746;2023-05-08T06:40:03;92017.94;;;15.94;57.21
46778;BME280;32536;47.128;8.746;2023-05-08T06:42:30;92020.63;;;15.94;57.13
46778;BME280;32536;47.128;8.746;2023-05-08T06:44:57;92019.09;;;15.93;57.55
46778;BME280;32536;47.128;8.746;2023-05-08T06:47:24;92019.09;;;15.93;57.72
46778;BME280;32536;47.128;8.746;2023-05-08T06:49:51;92016.75;;;15.95;57.82
46778;BME280;32536;47.128;8.746;2023-05-08T06:52:19;92020.53;;;15.98;57.60
46778;BME280;32536;47.128;8.746;2023-05-08T06:54:46;92014.69;;;15.99;57.64
46778;BME280;32536;47.128;8.746;2023-05-08T06:57:13;92021.63;;;16.00;57.24
46778;BME280;32536;47.128;8.746;2023-05-08T06:59:40;92018.91;;;16.00;57.21
46778;BME280;32536;47.128;8.746;2023-05-08T07:02:07;92017.72;;;16.02;57.17
46778;BME280;32536;47.128;8.746;2023-05-08T07:04:37;92017.28;;;16.03;57.60
46778;BME280;32536;47.128;8.746;2023-05-08T07:07:04;92013.41;;;16.04;57.38
46778;BME280;32536;47.128;8.746;2023-05-08T07:09:31;92025.75;;;16.05;57.19
46778;BME280;32536;47.128;8.746;2023-05-08T07:11:58;92016.41;;;16.06;57.39
46778;BME280;32536;47.128;8.746;2023-05-08T07:14:24;92024.97;;;16.05;57.22
46778;BME280;32536;47.128;8.746;2023-05-08T07:16:52;92025.31;;;16.07;57.05
46778;BME280;32536;47.128;8.746;2023-05-08T07:19:19;92031.44;;;16.07;57.29
46778;BME280;32536;47.128;8.746;2023-05-08T07:21:45;92026.81;;;16.08;57.12
46778;BME280;32536;47.128;8.746;2023-05-08T07:24:12;92021.72;;;16.10;57.07
46778;BME280;32536;47.128;8.746;2023-05-08T07:26:39;92018.50;;;16.15;57.15
46778;BME280;32536;47.128;8.746;2023-05-08T07:29:05;92014.84;;;16.22;56.65
46778;BME280;32536;47.128;8.746;2023-05-08T07:31:32;92016.13;;;16.17;56.87
46778;BME280;32536;47.128;8.746;2023-05-08T07:33:59;92018.91;;;16.13;56.74
46778;BME280;32536;47.128;8.746;2023-05-08T07:36:27;92024.44;;;16.10;56.78
46778;BME280;32536;47.128;8.746;2023-05-08T07:38:53;92022.50;;;16.10;57.32
46778;BME280;32536;47.128;8.746;2023-05-08T07:41:20;92025.09;;;16.14;57.31
46778;BME280;32536;47.128;8.746;2023-05-08T07:43:47;92030.06;;;16.15;57.14
46778;BME280;32536;47.128;8.746;2023-05-08T07:46:17;92029.31;;;16.15;57.36
46778;BME280;32536;47.128;8.746;2023-05-08T07:48:44;92021.53;;;16.17;57.49
46778;BME280;32536;47.128;8.746;2023-05-08T07:51:11;92032.78;;;16.15;57.43
46778;BME280;32536;47.128;8.746;2023-05-08T07:53:38;92030.06;;;16.15;57.56
46778;BME280;32536;47.128;8.746;2023-05-08T07:56:05;92031.69;;;16.13;57.37
46778;BME280;32536;47.128;8.746;2023-05-08T07:58:32;92034.38;;;16.13;57.69
46778;BME280;32536;47.128;8.746;2023-05-08T08:00:58;92034.06;;;16.11;57.75
46778;BME280;32536;47.128;8.746;2023-05-08T08:03:26;92030.50;;;16.14;57.86
46778;BME280;32536;47.128;8.746;2023-05-08T08:05:53;92029.72;;;16.13;57.51
46778;BME280;32536;47.128;8.746;2023-05-08T08:08:20;92033.31;;;16.10;57.58
46778;BME280;32536;47.128;8.746;2023-05-08T08:10:47;92029.31;;;16.15;57.44
46778;BME280;32536;47.128;8.746;2023-05-08T08:13:14;92022.28;;;16.17;57.56
46778;BME280;32536;47.128;8.746;2023-05-08T08:15:42;92028.53;;;16.14;57.67
46778;BME280;32536;47.128;8.746;2023-05-08T08:18:08;92031.25;;;16.14;57.72
46778;BME280;32536;47.128;8.746;2023-05-08T08:20:36;92020.78;;;16.16;57.43
46778;BME280;32536;47.128;8.746;2023-05-08T08:23:03;92026.53;;;16.19;57.57
46778;BME280;32536;47.128;8.746;2023-05-08T08:25:30;92030.31;;;16.21;57.47
46778;BME280;32536;47.128;8.746;2023-05-08T08:27:57;92030.09;;;16.28;57.71
46778;BME280;32536;47.128;8.746;2023-05-08T08:30:24;92022.28;;;16.30;57.40
46778;BME280;32536;47.128;8.746;2023-05-08T08:32:51;92031.50;;;16.33;57.31
46778;BME280;32536;47.128;8.746;2023-05-08T08:35:17;92029.56;;;16.33;57.18
46778;BME280;32536;47.128;8.746;2023-05-08T08:37:44;92026.19;;;16.29;57.46
46778;BME280;32536;47.128;8.746;2023-05-08T08:40:11;92023.91;;;16.28;57.60
46778;BME280;32536;47.128;8.746;2023-05-08T08:42:38;92020.38;;;16.31;57.38
46778;BME280;32536;47.128;8.746;2023-05-08T08:45:05;92027.59;;;16.34;57.70
46778;BME280;32536;47.128;8.746;2023-05-08T08:47:36;92017.97;;;16.33;57.51
46778;BME280;32536;47.128;8.746;2023-05-08T08:50:03;92025.66;;;16.35;57.41
46778;BME280;32536;47.128;8.746;2023-05-08T08:55:18;92029.00;;;16.39;57.17
46778;BME280;32536;47.128;8.746;2023-05-08T09:00:44;92023.06;;;16.44;57.39
46778;BME280;32536;47.128;8.746;2023-05-08T09:03:13;92024.25;;;16.43;57.55
46778;BME280;32536;47.128;8.746;2023-05-08T09:05:40;92028.06;;;16.45;57.51
46778;BME280;32536;47.128;8.746;2023-05-08T09:08:07;92025.91;;;16.53;57.53
46778;BME280;32536;47.128;8.746;2023-05-08T09:10:33;92031.19;;;16.57;57.30
46778;BME280;32536;47.128;8.746;2023-05-08T09:13:02;92022.66;;;16.58;57.20
46778;BME280;32536;47.128;8.746;2023-05-08T09:15:33;92029.47;;;16.63;57.37
46778;BME280;32536;47.128;8.746;2023-05-08T09:18:00;92022.31;;;16.69;57.31
46778;BME280;32536;47.128;8.746;2023-05-08T09:20:28;92026.00;;;16.75;57.32
46778;BME280;32536;47.128;8.746;2023-05-08T09:22:56;92023.06;;;16.83;57.22
46778;BME280;32536;47.128;8.746;2023-05-08T09:25:24;92028.19;;;16.93;57.34
46778;BME280;32536;47.128;8.746;2023-05-08T09:27:51;92024.91;;;16.99;57.30
46778;BME280;32536;47.128;8.746;2023-05-08T09:30:17;92023.00;;;16.99;57.12
46778;BME280;32536;47.128;8.746;2023-05-08T09:32:44;92026.09;;;16.98;57.25
46778;BME280;32536;47.128;8.746;2023-05-08T09:35:11;92029.47;;;17.02;57.40
46778;BME280;32536;47.128;8.746;2023-05-08T09:37:41;92029.56;;;17.11;56.70
46778;BME280;32536;47.128;8.746;2023-05-08T09:40:21;92033.22;;;17.17;56.61
46778;BME280;32536;47.128;8.746;2023-05-08T09:42:49;92032.56;;;17.26;57.22
46778;BME280;32536;47.128;8.746;2023-05-08T09:45:26;92025.09;;;17.30;56.92
46778;BME280;32536;47.128;8.746;2023-05-08T09:47:54;92027.88;;;17.39;57.11
46778;BME280;32536;47.128;8.746;2023-05-08T09:50:20;92028.06;;;17.45;57.29
46778;BME280;32536;47.128;8.746;2023-05-08T09:52:48;92027.81;;;17.52;57.15
46778;BME280;32536;47.128;8.746;2023-05-08T09:55:15;92032.88;;;17.63;57.12
46778;BME280;32536;47.128;8.746;2023-05-08T09:57:57;92040.78;;;17.70;56.36
46778;BME280;32536;47.128;8.746;2023-05-08T10:00:26;92029.25;;;17.79;56.84
46778;BME280;32536;47.128;8.746;2023-05-08T10:02:56;92030.50;;;17.87;56.89
46778;BME280;32536;47.128;8.746;2023-05-08T10:08:17;92041.44;;;17.97;56.72
46778;BME280;32536;47.128;8.746;2023-05-08T10:10:48;92039.03;;;17.99;56.80
46778;BME280;32536;47.128;8.746;2023-05-08T10:13:15;92044.47;;;17.99;56.75
46778;BME280;32536;47.128;8.746;2023-05-08T10:15:42;92045.47;;;17.92;56.83
46778;BME280;32536;47.128;8.746;2023-05-08T10:18:09;92051.00;;;17.88;56.79
46778;BME280;32536;47.128;8.746;2023-05-08T10:20:39;92044.81;;;17.88;56.82
46778;BME280;32536;47.128;8.746;2023-05-08T10:23:10;92049.81;;;17.89;56.78
46778;BME280;32536;47.128;8.746;2023-05-08T10:25:47;92049.47;;;17.87;56.73
46778;BME280;32536;47.128;8.746;2023-05-08T10:28:31;92045.25;;;17.86;57.01
46778;BME280;32536;47.128;8.746;2023-05-08T10:31:06;92039.84;;;17.86;56.79
46778;BME280;32536;47.128;8.746;2023-05-08T10:33:34;92041.16;;;17.82;56.93
46778;BME280;32536;47.128;8.746;2023-05-08T10:36:04;92039.00;;;17.76;56.89
46778;BME280;32536;47.128;8.746;2023-05-08T10:38:31;92046.81;;;17.74;57.14
46778;BME280;32536;47.128;8.746;2023-05-08T10:40:59;92031.22;;;17.79;57.07
46778;BME280;32536;47.128;8.746;2023-05-08T10:43:28;92027.94;;;17.84;56.97
46778;BME280;32536;47.128;8.746;2023-05-08T10:46:01;92029.13;;;17.83;57.10
46778;BME280;32536;47.128;8.746;2023-05-08T10:48:47;92026.53;;;17.79;57.08
46778;BME280;32536;47.128;8.746;2023-05-08T10:54:25;92022.88;;;17.73;57.23
46778;BME280;32536;47.128;8.746;2023-05-08T10:57:10;92018.19;;;17.73;57.10
46778;BME280;32536;47.128;8.746;2023-05-08T10:59:37;92015.06;;;17.75;57.15
46778;BME280;32536;47.128;8.746;2023-05-08T11:02:05;92011.47;;;17.78;57.30
46778;BME280;32536;47.128;8.746;2023-05-08T11:04:33;92011.47;;;17.78;57.19
46778;BME280;32536;47.128;8.746;2023-05-08T11:07:00;92008.31;;;17.80;57.13
46778;BME280;32536;47.128;8.746;2023-05-08T11:12:27;92011.22;;;17.85;56.75
46778;BME280;32536;47.128;8.746;2023-05-08T11:15:00;92013.22;;;17.94;57.04
46778;BME280;32536;47.128;8.746;2023-05-08T11:17:31;92013.69;;;17.92;56.78
46778;BME280;32536;47.128;8.746;2023-05-08T11:20:00;92000.69;;;17.87;56.92
46778;BME280;32536;47.128;8.746;2023-05-08T11:24:58;92001.88;;;17.99;56.78
46778;BME280;32536;47.128;8.746;2023-05-08T11:39:07;91998.47;;;18.39;56.04
46778;BME280;32536;47.128;8.746;2023-05-08T11:41:37;91997.63;;;18.52;56.41
46778;BME280;32536;47.128;8.746;2023-05-08T11:44:08;91994.91;;;18.61;56.34
46778;BME280;32536;47.128;8.746;2023-05-08T11:49:20;91995.84;;;18.67;56.22
46778;BME280;32536;47.128;8.746;2023-05-08T11:51:50;91988.34;;;18.71;56.22
46778;BME280;32536;47.128;8.746;2023-05-08T11:54:23;91991.34;;;18.73;56.20
46778;BME280;32536;47.128;8.746;2023-05-08T11:56:52;91997.09;;;18.76;56.14
46778;BME280;32536;47.128;8.746;2023-05-08T11:59:19;91995.56;;;18.75;56.20
46778;BME280;32536;47.128;8.746;2023-05-08T12:01:50;91992.13;;;18.74;55.80
46778;BME280;32536;47.128;8.746;2023-05-08T12:04:17;91997.88;;;18.76;56.10
46778;BME280;32536;47.128;8.746;2023-05-08T12:06:44;91992.72;;;18.78;55.99
46778;BME280;32536;47.128;8.746;2023-05-08T12:09:14;91996.78;;;18.73;56.13
46778;BME280;32536;47.128;8.746;2023-05-08T12:11:43;91985.50;;;18.75;56.19
46778;BME280;32536;47.128;8.746;2023-05-08T12:14:12;91994.25;;;18.79;56.02
46778;BME280;32536;47.128;8.746;2023-05-08T12:16:42;92000.28;;;18.83;56.05
46778;BME280;32536;47.128;8.746;2023-05-08T12:19:10;91997.41;;;18.87;55.93
46778;BME280;32536;47.128;8.746;2023-05-08T12:21:38;91994.16;;;18.92;55.92
46778;BME280;32536;47.128;8.746;2023-05-08T12:24:12;91987.38;;;18.97;55.66
46778;BME280;32536;47.128;8.746;2023-05-08T12:26:39;91984.81;;;19.02;55.82
46778;BME280;32536;47.128;8.746;2023-05-08T12:29:06;91989.38;;;19.06;55.61
46778;BME280;32536;47.128;8.746;2023-05-08T12:31:36;91988.91;;;19.07;55.63
46778;BME280;32536;47.128;8.746;2023-05-08T12:34:06;91987.25;;;19.10;55.76
46778;BME280;32536;47.128;8.746;2023-05-08T12:36:35;91988.31;;;19.12;55.53
46778;BME280;32536;47.128;8.746;2023-05-08T12:39:16;91990.28;;;19.12;55.25
46778;BME280;32536;47.128;8.746;2023-05-08T12:41:50;91986.66;;;19.15;55.30
46778;BME280;32536;47.128;8.746;2023-05-08T12:44:23;91981.06;;;19.18;55.47
46778;BME280;32536;47.128;8.746;2023-05-08T12:46:55;91991.94;;;19.18;55.33
46778;BME280;32536;47.128;8.746;2023-05-08T12:49:26;91993.47;;;19.19;55.33
46778;BME280;32536;47.128;8.746;2023-05-08T12:52:02;91994.97;;;19.20;55.50
46778;BME280;32536;47.128;8.746;2023-05-08T12:54:38;91989.84;;;19.23;55.44
46778;BME280;32536;47.128;8.746;2023-05-08T12:57:16;91988.03;;;19.19;55.77
46778;BME280;32536;47.128;8.746;2023-05-08T12:59:44;91991.66;;;19.16;55.70
46778;BME280;32536;47.128;8.746;2023-05-08T13:02:19;92001.56;;;19.10;55.84
46778;BME280;32536;47.128;8.746;2023-05-08T13:04:55;92000.22;;;19.06;55.79
46778;BME280;32536;47.128;8.746;2023-05-08T13:07:22;92007.19;;;19.07;55.79
46778;BME280;32536;47.128;8.746;2023-05-08T13:09:59;91996.13;;;19.01;55.86
46778;BME280;32536;47.128;8.746;2023-05-08T13:12:30;91997.78;;;18.98;55.75
46778;BME280;32536;47.128;8.746;2023-05-08T13:14:56;91995.09;;;18.98;55.90
46778;BME280;32536;47.128;8.746;2023-05-08T13:17:23;91993.09;;;18.99;55.80
46778;BME280;32536;47.128;8.746;2023-05-08T13:19:50;91990.84;;;18.97;55.80
46778;BME280;32536;47.128;8.746;2023-05-08T13:22:16;91992.06;;;18.96;55.92
46778;BME280;32536;47.128;8.746;2023-05-08T13:24:43;91994.03;;;18.96;56.11
46778;BME280;32536;47.128;8.746;2023-05-08T13:27:10;91990.25;;;18.93;56.27
46778;BME280;32536;47.128;8.746;2023-05-08T13:29:38;91991.56;;;18.88;56.10
46778;BME280;32536;47.128;8.746;2023-05-08T13:32:05;91987.59;;;18.80;56.41
46778;BME280;32536;47.128;8.746;2023-05-08T13:34:31;91990.91;;;18.75;56.70
46778;BME280;32536;47.128;8.746;2023-05-08T13:36:58;91983.53;;;18.76;56.56
46778;BME280;32536;47.128;8.746;2023-05-08T13:39:25;91985.78;;;18.77;56.57
46778;BME280;32536;47.128;8.746;2023-05-08T13:41:52;91978.88;;;18.76;56.58
46778;BME280;32536;47.128;8.746;2023-05-08T13:44:18;91984.44;;;18.72;56.64
46778;BME280;32536;47.128;8.746;2023-05-08T13:46:45;91982.59;;;18.69;56.70
46778;BME280;32536;47.128;8.746;2023-05-08T13:49:12;91976.09;;;18.67;56.74
46778;BME280;32536;47.128;8.746;2023-05-08T13:51:38;91974.91;;;18.68;56.87
46778;BME280;32536;47.128;8.746;2023-05-08T13:54:05;91977.91;;;18.70;56.94
46778;BME280;32536;47.128;8.746;2023-05-08T13:56:32;91974.91;;;18.77;57.13
46778;BME280;32536;47.128;8.746;2023-05-08T13:58:59;91970.00;;;18.85;56.97
46778;BME280;32536;47.128;8.746;2023-05-08T14:01:26;91970.13;;;18.91;56.59
46778;BME280;32536;47.128;8.746;2023-05-08T14:03:53;91971.06;;;18.97;56.59